Time;durP1;ratioP1;P1;durP2;ratioP2;P2;SDS_P1;SDS_P2;PMS_P1;PMS_P2;Temp;Humidity;BMP_temperature;BMP_pressure;BME280_temperature;BME280_humidity;BME280_pressure;Samples;Min_cycle;Max_cycle;Signal;HPM_P1;HPM_P2
2022/06/10 00:00:19;;;;;;;;;;;12.70;99.90;;;;;;5062909;28;20216;-69
2022/06/10 00:02:45;;;;;;;;;;;12.80;99.90;;;;;;5062739;28;19921;-68
2022/06/10 00:05:14;;;;;;;;;;;12.80;99.90;;;;;;5061932;28;19964;-68
2022/06/10 00:07:41;;;;;;;;;;;12.70;99.90;;;;;;5063240;28;20255;-69
2022/06/10 00:10:09;;;;;;;;;;;12.70;99.90;;;;;;5043684;28;19943;-69
2022/06/10 00:12:37;;;;;;;;;;;12.70;99.90;;;;;;5043739;28;19921;-69
2022/06/10 00:15:05;;;;;;;;;;;12.70;99.90;;;;;;5052731;28;19952;-69
2022/06/10 00:17:31;;;;;;;;;;;12.70;99.90;;;;;;5062309;28;19956;-69
2022/06/10 00:19:58;;;;;;;;;;;12.60;99.90;;;;;;5062944;28;19959;-69
2022/06/10 00:22:25;;;;;;;;;;;12.50;99.90;;;;;;5062614;28;19964;-69
2022/06/10 00:24:52;;;;;;;;;;;12.40;99.90;;;;;;5062814;28;19921;-69
2022/06/10 00:27:18;;;;;;;;;;;12.30;99.90;;;;;;5062100;28;20270;-69
2022/06/10 00:29:47;;;;;;;;;;;12.20;99.90;;;;;;5062670;28;19951;-68
2022/06/10 00:32:14;;;;;;;;;;;12.10;99.90;;;;;;5062349;28;19975;-69
2022/06/10 00:34:41;;;;;;;;;;;12.20;99.90;;;;;;5062580;28;19921;-69
2022/06/10 00:37:08;;;;;;;;;;;12.20;99.90;;;;;;5062358;28;19992;-69
2022/06/10 00:39:35;;;;;;;;;;;12.10;99.90;;;;;;5062296;28;19983;-69
2022/06/10 00:42:03;;;;;;;;;;;12.10;99.90;;;;;;5063223;28;19920;-67
2022/06/10 00:44:33;;;;;;;;;;;12.10;99.90;;;;;;5062601;28;19921;-69
2022/06/10 00:47:02;;;;;;;;;;;12.10;99.90;;;;;;5062409;28;19952;-69
2022/06/10 00:49:31;;;;;;;;;;;12.10;99.90;;;;;;5062115;28;19932;-69
2022/06/10 00:51:58;;;;;;;;;;;12.10;99.90;;;;;;5062583;28;19956;-69
2022/06/10 00:54:28;;;;;;;;;;;12.10;99.90;;;;;;5062403;28;19948;-69
2022/06/10 00:56:56;;;;;;;;;;;12.10;99.90;;;;;;5062311;28;19984;-68
2022/06/10 00:59:24;;;;;;;;;;;12.10;99.90;;;;;;5062399;28;20100;-68
2022/06/10 01:01:52;;;;;;;;;;;12.10;99.90;;;;;;5066226;28;19962;-69
2022/06/10 01:04:21;;;;;;;;;;;12.10;99.90;;;;;;5065486;28;19959;-69
2022/06/10 01:09:18;;;;;;;;;;;12.00;99.90;;;;;;5083979;28;19977;-69
2022/06/10 01:11:56;;;;;;;;;;;12.00;99.90;;;;;;5085985;28;20176;-69
2022/06/10 01:14:29;;;;;;;;;;;11.90;99.90;;;;;;5084391;28;19959;-70
2022/06/10 01:17:01;;;;;;;;;;;11.90;99.90;;;;;;5084640;28;19952;-69
2022/06/10 01:19:42;;;;;;;;;;;11.90;99.90;;;;;;5085342;28;19920;-69
2022/06/10 01:22:18;;;;;;;;;;;11.90;99.90;;;;;;5085745;28;20223;-69
2022/06/10 01:24:56;;;;;;;;;;;11.90;99.90;;;;;;5078500;28;19959;-69
2022/06/10 01:27:49;;;;;;;;;;;11.90;99.90;;;;;;5085468;28;20192;-69
2022/06/10 01:30:24;;;;;;;;;;;11.90;99.90;;;;;;5085414;28;19921;-69
2022/06/10 01:32:57;;;;;;;;;;;11.90;99.90;;;;;;5085934;28;19960;-69
2022/06/10 01:35:27;;;;;;;;;;;11.90;99.90;;;;;;5085111;28;19943;-69
2022/06/10 01:37:58;;;;;;;;;;;11.90;99.90;;;;;;5083169;28;19926;-69
2022/06/10 01:40:28;;;;;;;;;;;11.90;99.90;;;;;;5085322;28;19927;-69
2022/06/10 01:42:56;;;;;;;;;;;11.90;99.90;;;;;;5085496;28;19970;-69
2022/06/10 01:45:26;;;;;;;;;;;11.90;99.90;;;;;;5084875;28;20247;-69
2022/06/10 01:48:05;;;;;;;;;;;11.90;99.90;;;;;;5085286;28;20250;-69
2022/06/10 01:50:35;;;;;;;;;;;11.80;99.90;;;;;;5081473;28;19947;-69
2022/06/10 01:53:05;;;;;;;;;;;11.80;99.90;;;;;;5076601;28;19960;-69
2022/06/10 01:55:34;;;;;;;;;;;11.90;99.90;;;;;;5076429;28;19953;-69
2022/06/10 01:58:05;;;;;;;;;;;11.80;99.90;;;;;;5072110;28;20390;-69
2022/06/10 02:00:33;;;;;;;;;;;11.70;99.90;;;;;;5084197;28;19951;-69
2022/06/10 02:03:02;;;;;;;;;;;11.70;99.90;;;;;;5074061;28;20257;-69
2022/06/10 02:05:37;;;;;;;;;;;11.70;99.90;;;;;;5080140;28;19951;-69
2022/06/10 02:08:14;;;;;;;;;;;11.60;99.90;;;;;;5077501;28;19970;-69
2022/06/10 02:10:44;;;;;;;;;;;11.60;99.90;;;;;;5083385;28;19958;-69
2022/06/10 02:13:14;;;;;;;;;;;11.60;99.90;;;;;;5078027;28;19974;-69
2022/06/10 02:15:44;;;;;;;;;;;11.50;99.90;;;;;;5084690;28;20123;-69
2022/06/10 02:18:11;;;;;;;;;;;11.50;99.90;;;;;;5084667;28;19928;-69
2022/06/10 02:20:42;;;;;;;;;;;11.50;99.90;;;;;;5083715;28;19927;-69
2022/06/10 02:23:10;;;;;;;;;;;11.50;99.90;;;;;;5078357;28;19955;-69
2022/06/10 02:25:38;;;;;;;;;;;11.50;99.90;;;;;;5084107;28;19936;-69
2022/06/10 02:28:06;;;;;;;;;;;11.50;99.90;;;;;;5084447;28;19952;-70
2022/06/10 02:30:36;;;;;;;;;;;11.50;99.90;;;;;;5084448;28;19983;-70
2022/06/10 02:33:03;;;;;;;;;;;11.50;99.90;;;;;;5084265;28;20196;-69
2022/06/10 02:35:35;;;;;;;;;;;11.50;99.90;;;;;;5083675;28;19951;-69
2022/06/10 02:38:09;;;;;;;;;;;11.50;99.90;;;;;;5084124;28;20200;-70
2022/06/10 02:40:39;;;;;;;;;;;11.50;99.90;;;;;;5084044;28;19927;-69
2022/06/10 02:43:08;;;;;;;;;;;11.50;99.90;;;;;;5084303;28;20154;-69
2022/06/10 02:45:39;;;;;;;;;;;11.50;99.90;;;;;;5083067;28;19921;-69
2022/06/10 02:48:08;;;;;;;;;;;11.50;99.90;;;;;;5073925;28;19947;-69
2022/06/10 02:50:35;;;;;;;;;;;11.50;99.90;;;;;;5081820;28;19948;-69
2022/06/10 02:53:03;;;;;;;;;;;11.50;99.90;;;;;;5083968;28;19927;-69
2022/06/10 02:55:31;;;;;;;;;;;11.40;99.90;;;;;;5083918;28;19974;-69
2022/06/10 03:03:34;;;;;;;;;;;11.40;99.90;;;;;;5079653;28;19984;-70
2022/06/10 03:06:05;;;;;;;;;;;11.40;99.90;;;;;;5083431;28;19920;-69
2022/06/10 03:08:36;;;;;;;;;;;11.40;99.90;;;;;;5083359;28;19932;-69
2022/06/10 03:11:09;;;;;;;;;;;11.40;99.90;;;;;;5082944;28;19920;-69
2022/06/10 03:13:42;;;;;;;;;;;11.40;99.90;;;;;;5083689;28;20163;-69
2022/06/10 03:16:16;;;;;;;;;;;11.40;99.90;;;;;;5077822;28;19920;-69
2022/06/10 03:18:48;;;;;;;;;;;11.30;99.90;;;;;;5083412;28;19948;-69
2022/06/10 03:21:18;;;;;;;;;;;11.40;99.90;;;;;;5083482;28;19920;-69
2022/06/10 03:23:51;;;;;;;;;;;11.30;99.90;;;;;;5083329;28;20208;-69
2022/06/10 03:26:22;;;;;;;;;;;11.30;99.90;;;;;;5083039;28;19921;-69
2022/06/10 03:28:51;;;;;;;;;;;11.30;99.90;;;;;;5083126;28;19955;-69
2022/06/10 03:31:22;;;;;;;;;;;11.30;99.90;;;;;;5083108;28;20257;-69
2022/06/10 03:33:50;;;;;;;;;;;11.20;99.90;;;;;;5083537;28;19920;-69
2022/06/10 03:36:20;;;;;;;;;;;11.20;99.90;;;;;;5083061;28;20230;-69
2022/06/10 03:38:49;;;;;;;;;;;11.20;99.90;;;;;;5083148;28;20215;-70
2022/06/10 03:41:19;;;;;;;;;;;11.10;99.90;;;;;;5083019;28;19927;-70
2022/06/10 03:43:46;;;;;;;;;;;11.10;99.90;;;;;;5083187;28;19920;-69
2022/06/10 03:46:13;;;;;;;;;;;11.10;99.90;;;;;;5082948;28;20250;-69
2022/06/10 03:48:41;;;;;;;;;;;11.10;99.90;;;;;;5083227;28;19987;-69
2022/06/10 03:51:09;;;;;;;;;;;11.10;99.90;;;;;;5083089;28;19921;-69
2022/06/10 03:53:36;;;;;;;;;;;11.10;99.90;;;;;;5083050;28;19956;-69
2022/06/10 03:56:05;;;;;;;;;;;11.00;99.90;;;;;;5082755;28;20242;-69
2022/06/10 04:02:08;;;;;;;;;;;11.10;99.90;;;;;;5082769;28;19953;-69
2022/06/10 04:04:34;;;;;;;;;;;11.00;99.90;;;;;;5082084;28;19931;-69
2022/06/10 04:07:01;;;;;;;;;;;11.00;99.90;;;;;;5082583;28;19920;-69
2022/06/10 04:09:28;;;;;;;;;;;11.00;99.90;;;;;;5082974;28;19952;-69
2022/06/10 04:11:56;;;;;;;;;;;11.10;99.90;;;;;;5082854;28;19921;-69
2022/06/10 04:14:23;;;;;;;;;;;11.10;99.90;;;;;;5082616;28;19996;-69
2022/06/10 04:16:50;;;;;;;;;;;11.20;99.90;;;;;;5082407;28;19956;-70
2022/06/10 04:19:16;;;;;;;;;;;11.20;99.90;;;;;;5082681;28;19956;-70
2022/06/10 04:21:44;;;;;;;;;;;11.20;99.90;;;;;;5082719;28;20230;-70
2022/06/10 04:24:10;;;;;;;;;;;11.30;99.90;;;;;;5082958;28;20154;-69
2022/06/10 04:26:37;;;;;;;;;;;11.40;99.90;;;;;;5082123;28;20119;-69
2022/06/10 04:29:05;;;;;;;;;;;11.40;99.90;;;;;;5083083;28;19927;-70
2022/06/10 04:31:32;;;;;;;;;;;11.50;99.90;;;;;;5082483;28;19963;-69
2022/06/10 04:33:58;;;;;;;;;;;11.60;99.90;;;;;;5083014;28;19987;-69
2022/06/10 04:36:25;;;;;;;;;;;11.70;99.90;;;;;;5086457;28;19927;-69
2022/06/10 04:38:52;;;;;;;;;;;11.80;99.90;;;;;;5087120;28;19959;-68
2022/06/10 04:41:19;;;;;;;;;;;11.90;99.90;;;;;;5086946;28;20154;-70
2022/06/10 04:43:45;;;;;;;;;;;11.90;99.90;;;;;;5086784;28;19956;-69
2022/06/10 04:46:16;;;;;;;;;;;12.00;99.90;;;;;;5086510;28;19963;-69
2022/06/10 04:48:43;;;;;;;;;;;12.10;99.90;;;;;;5086403;28;19955;-69
2022/06/10 04:51:10;;;;;;;;;;;12.20;99.90;;;;;;5086689;28;19924;-69
2022/06/10 04:53:38;;;;;;;;;;;12.20;99.90;;;;;;5087021;28;19959;-69
2022/06/10 04:56:05;;;;;;;;;;;12.30;99.90;;;;;;5086540;28;19920;-69
2022/06/10 04:58:31;;;;;;;;;;;12.40;99.90;;;;;;5087030;28;19921;-68
2022/06/10 05:00:58;;;;;;;;;;;12.50;99.90;;;;;;5086903;28;19920;-69
2022/06/10 05:03:26;;;;;;;;;;;12.50;99.90;;;;;;5086640;28;19928;-69
2022/06/10 05:05:52;;;;;;;;;;;12.60;99.90;;;;;;5086467;28;20120;-69
2022/06/10 05:08:19;;;;;;;;;;;12.70;99.90;;;;;;5086438;28;20186;-69
2022/06/10 05:10:47;;;;;;;;;;;12.80;99.90;;;;;;5086838;28;20171;-69
2022/06/10 05:13:16;;;;;;;;;;;12.90;99.90;;;;;;5086745;28;20172;-68
2022/06/10 05:15:43;;;;;;;;;;;13.00;99.90;;;;;;5086472;28;19983;-69
2022/06/10 05:18:11;;;;;;;;;;;13.00;99.90;;;;;;5086480;28;19959;-69
2022/06/10 05:20:40;;;;;;;;;;;13.10;99.90;;;;;;5086655;28;20144;-69
2022/06/10 05:23:07;;;;;;;;;;;13.20;99.90;;;;;;5086627;28;19956;-68
2022/06/10 05:25:34;;;;;;;;;;;13.30;99.90;;;;;;5085990;28;19921;-69
2022/06/10 05:28:00;;;;;;;;;;;13.40;99.90;;;;;;5086135;28;19979;-69
2022/06/10 05:30:28;;;;;;;;;;;13.40;99.90;;;;;;5086474;28;19952;-73
2022/06/10 05:32:55;;;;;;;;;;;13.60;99.90;;;;;;5086204;28;20150;-68
2022/06/10 05:35:21;;;;;;;;;;;13.70;99.90;;;;;;5085488;28;19925;-69
2022/06/10 05:37:50;;;;;;;;;;;13.80;99.90;;;;;;5085028;28;20239;-69
2022/06/10 05:40:18;;;;;;;;;;;13.90;99.90;;;;;;5084687;28;19956;-69
2022/06/10 05:42:45;;;;;;;;;;;14.00;99.90;;;;;;5085615;28;19947;-69
2022/06/10 05:45:13;;;;;;;;;;;14.10;99.90;;;;;;5085453;28;19948;-69
2022/06/10 05:47:41;;;;;;;;;;;14.20;99.90;;;;;;5083998;28;20254;-69
2022/06/10 05:50:11;;;;;;;;;;;14.30;99.90;;;;;;5085257;28;20174;-69
2022/06/10 05:52:39;;;;;;;;;;;14.40;99.90;;;;;;5085400;28;19920;-69
2022/06/10 05:55:09;;;;;;;;;;;14.50;99.90;;;;;;5085565;28;19920;-68
2022/06/10 05:57:36;;;;;;;;;;;14.50;99.90;;;;;;5085307;28;19942;-70
2022/06/10 06:00:04;;;;;;;;;;;14.60;99.90;;;;;;5085170;28;19959;-69
2022/06/10 06:02:31;;;;;;;;;;;14.60;99.90;;;;;;5084938;28;19952;-69
2022/06/10 06:04:58;;;;;;;;;;;14.70;99.90;;;;;;5084883;28;19952;-69
2022/06/10 06:07:25;;;;;;;;;;;14.80;99.90;;;;;;5083803;28;20216;-69
2022/06/10 06:09:52;;;;;;;;;;;14.80;99.90;;;;;;5084862;28;19963;-69
2022/06/10 06:12:20;;;;;;;;;;;14.90;99.90;;;;;;5085046;28;19987;-69
2022/06/10 06:14:47;;;;;;;;;;;15.00;99.90;;;;;;5084710;28;19921;-69
2022/06/10 06:17:15;;;;;;;;;;;15.00;99.90;;;;;;5083882;28;19999;-69
2022/06/10 06:19:42;;;;;;;;;;;15.10;99.90;;;;;;5084577;28;19928;-69
2022/06/10 06:22:09;;;;;;;;;;;15.10;99.90;;;;;;5084850;28;19924;-69
2022/06/10 06:24:36;;;;;;;;;;;15.20;99.90;;;;;;5084461;28;19956;-69
2022/06/10 06:27:03;;;;;;;;;;;15.20;99.90;;;;;;5084108;28;19927;-69
2022/06/10 06:29:32;;;;;;;;;;;15.30;99.90;;;;;;5084280;28;19979;-69
2022/06/10 06:31:58;;;;;;;;;;;15.30;99.90;;;;;;5084444;28;19928;-69
2022/06/10 06:34:25;;;;;;;;;;;15.40;99.90;;;;;;5084190;28;19927;-69
2022/06/10 06:36:53;;;;;;;;;;;15.40;99.90;;;;;;5082672;28;20274;-69
2022/06/10 06:39:21;;;;;;;;;;;15.40;99.90;;;;;;5079221;28;19950;-69
2022/06/10 06:41:47;;;;;;;;;;;15.40;99.90;;;;;;5076592;28;19921;-69
2022/06/10 06:44:15;;;;;;;;;;;15.50;99.90;;;;;;5071412;28;19959;-69
2022/06/10 06:46:43;;;;;;;;;;;15.60;99.90;;;;;;5072285;28;19956;-69
2022/06/10 06:49:12;;;;;;;;;;;15.70;99.90;;;;;;5070526;28;20262;-69
2022/06/10 06:51:39;;;;;;;;;;;15.70;99.90;;;;;;5077181;28;19963;-69
2022/06/10 06:54:06;;;;;;;;;;;15.70;99.90;;;;;;5081591;28;19924;-69
2022/06/10 06:56:33;;;;;;;;;;;15.80;99.90;;;;;;5072921;28;19952;-69
2022/06/10 06:58:59;;;;;;;;;;;15.80;99.90;;;;;;5067826;28;20330;-69
2022/06/10 07:01:26;;;;;;;;;;;16.00;99.90;;;;;;5076565;28;20216;-69
2022/06/10 07:03:54;;;;;;;;;;;16.00;99.90;;;;;;5070803;28;20247;-69
2022/06/10 07:06:21;;;;;;;;;;;16.10;99.90;;;;;;5073004;28;20264;-69
2022/06/10 07:08:47;;;;;;;;;;;16.10;99.90;;;;;;5087569;23;20174;-69
2022/06/10 07:11:14;;;;;;;;;;;16.20;99.90;;;;;;5082995;28;19952;-71
2022/06/10 07:13:41;;;;;;;;;;;16.20;99.90;;;;;;5083458;28;19958;-72
2022/06/10 07:16:08;;;;;;;;;;;16.30;99.90;;;;;;5082711;28;19921;-69
2022/06/10 07:18:35;;;;;;;;;;;16.30;99.90;;;;;;5083320;28;19967;-70
2022/06/10 07:21:03;;;;;;;;;;;16.40;99.90;;;;;;5072626;28;19991;-70
2022/06/10 07:23:29;;;;;;;;;;;16.40;99.90;;;;;;5074889;28;20118;-70
2022/06/10 07:25:56;;;;;;;;;;;16.50;99.90;;;;;;5075487;28;19952;-70
2022/06/10 07:28:23;;;;;;;;;;;16.60;99.90;;;;;;5079771;28;19983;-70
2022/06/10 07:30:50;;;;;;;;;;;16.70;99.90;;;;;;5080887;28;19959;-70
2022/06/10 07:33:16;;;;;;;;;;;16.80;99.90;;;;;;5082068;28;19920;-70
2022/06/10 07:35:43;;;;;;;;;;;16.90;99.90;;;;;;5076357;28;19925;-70
2022/06/10 07:38:11;;;;;;;;;;;17.00;99.90;;;;;;5075567;28;19928;-70
2022/06/10 07:43:24;;;;;;;;;;;17.10;99.90;;;;;;5073152;28;19922;-70
2022/06/10 07:45:51;;;;;;;;;;;17.10;99.90;;;;;;5076332;28;19960;-70
2022/06/10 07:48:18;;;;;;;;;;;17.10;99.90;;;;;;5082096;28;19987;-70
2022/06/10 07:50:46;;;;;;;;;;;17.20;99.90;;;;;;5082828;28;19951;-69
2022/06/10 07:53:14;;;;;;;;;;;17.40;99.90;;;;;;5073309;28;19921;-70
2022/06/10 07:55:41;;;;;;;;;;;17.40;99.90;;;;;;5072297;28;20143;-70
2022/06/10 07:58:08;;;;;;;;;;;17.50;99.90;;;;;;5076673;28;19924;-70
2022/06/10 08:00:35;;;;;;;;;;;17.50;99.90;;;;;;5082588;28;19963;-70
2022/06/10 08:03:02;;;;;;;;;;;17.50;99.90;;;;;;5074323;28;19920;-70
2022/06/10 08:05:29;;;;;;;;;;;17.50;99.90;;;;;;5076367;28;19955;-70
2022/06/10 08:07:55;;;;;;;;;;;17.60;99.90;;;;;;5080698;28;19960;-70
2022/06/10 08:10:24;;;;;;;;;;;17.70;99.90;;;;;;5081131;28;19925;-69
2022/06/10 08:12:51;;;;;;;;;;;17.80;99.90;;;;;;5086836;28;19920;-70
2022/06/10 08:15:19;;;;;;;;;;;17.90;99.90;;;;;;5082132;28;19959;-68
2022/06/10 08:17:47;;;;;;;;;;;17.90;99.90;;;;;;5082782;28;19920;-67
2022/06/10 08:20:17;;;;;;;;;;;18.00;99.90;;;;;;5086671;28;19967;-68
2022/06/10 08:22:43;;;;;;;;;;;18.10;99.90;;;;;;5084540;28;20119;-69
2022/06/10 08:25:11;;;;;;;;;;;18.10;99.90;;;;;;5066662;28;19944;-69
2022/06/10 08:27:39;;;;;;;;;;;18.10;99.90;;;;;;5067028;28;19928;-69
2022/06/10 08:30:08;;;;;;;;;;;18.20;99.90;;;;;;5075341;28;20653;-69
2022/06/10 08:32:34;;;;;;;;;;;18.30;99.90;;;;;;5079159;28;19964;-69
2022/06/10 08:35:01;;;;;;;;;;;18.30;99.90;;;;;;5082545;28;19921;-68
2022/06/10 08:37:28;;;;;;;;;;;18.40;99.90;;;;;;5079817;28;20144;-69
2022/06/10 08:39:54;;;;;;;;;;;18.40;99.90;;;;;;5077671;28;19948;-69
2022/06/10 08:42:30;;;;;;;;;;;18.40;99.90;;;;;;5083562;28;19955;-69
2022/06/10 08:44:59;;;;;;;;;;;18.50;99.90;;;;;;5074403;28;20092;-69
2022/06/10 08:47:34;;;;;;;;;;;18.50;99.90;;;;;;5076196;28;20235;-69
2022/06/10 08:50:16;;;;;;;;;;;18.50;99.90;;;;;;5082470;28;19920;-68
2022/06/10 08:52:45;;;;;;;;;;;18.50;99.90;;;;;;5071082;28;19928;-68
2022/06/10 08:55:18;;;;;;;;;;;18.50;99.90;;;;;;5078528;28;20199;-69
2022/06/10 08:57:46;;;;;;;;;;;18.50;99.90;;;;;;5079217;28;19920;-69
2022/06/10 09:00:19;;;;;;;;;;;18.50;99.90;;;;;;5075655;28;19932;-69
2022/06/10 09:02:48;;;;;;;;;;;18.60;99.90;;;;;;5083329;28;19959;-68
2022/06/10 09:05:18;;;;;;;;;;;18.70;99.90;;;;;;5077502;28;19921;-69
2022/06/10 09:07:47;;;;;;;;;;;18.80;99.90;;;;;;5078413;28;19928;-69
2022/06/10 09:10:18;;;;;;;;;;;19.00;99.90;;;;;;5080711;28;20291;-68
2022/06/10 09:13:02;;;;;;;;;;;19.00;99.90;;;;;;5080118;28;19928;-69
2022/06/10 09:15:31;;;;;;;;;;;19.00;99.90;;;;;;5086262;28;19995;-69
2022/06/10 09:18:03;;;;;;;;;;;19.10;99.90;;;;;;5086252;28;19963;-68
2022/06/10 09:20:32;;;;;;;;;;;19.20;99.90;;;;;;5085838;28;19920;-69
2022/06/10 09:23:03;;;;;;;;;;;19.30;99.90;;;;;;5071907;28;19952;-69
2022/06/10 09:25:33;;;;;;;;;;;19.40;99.90;;;;;;5065772;28;19920;-69
2022/06/10 09:28:00;;;;;;;;;;;19.50;99.90;;;;;;5071980;28;19988;-69
2022/06/10 09:30:31;;;;;;;;;;;19.50;99.90;;;;;;5079392;28;19943;-69
2022/06/10 09:33:01;;;;;;;;;;;19.70;99.90;;;;;;5082115;28;19927;-68
2022/06/10 09:35:31;;;;;;;;;;;19.80;99.90;;;;;;5069732;28;20188;-69
2022/06/10 09:38:03;;;;;;;;;;;19.80;99.90;;;;;;5086023;28;20316;-69
2022/06/10 09:40:38;;;;;;;;;;;19.70;99.90;;;;;;5085138;28;19952;-71
2022/06/10 09:43:15;;;;;;;;;;;19.80;99.90;;;;;;5081442;28;20168;-69
2022/06/10 09:45:46;;;;;;;;;;;20.00;99.90;;;;;;5073104;28;19992;-70
2022/06/10 09:48:22;;;;;;;;;;;20.00;99.90;;;;;;5070943;28;20172;-70
2022/06/10 09:50:52;;;;;;;;;;;20.10;99.90;;;;;;5065531;28;19952;-69
2022/06/10 09:53:25;;;;;;;;;;;20.10;99.90;;;;;;5065158;28;19988;-69
2022/06/10 09:55:58;;;;;;;;;;;20.20;99.90;;;;;;5068047;28;20212;-69
2022/06/10 09:58:34;;;;;;;;;;;20.30;99.90;;;;;;5084854;28;19987;-68
2022/06/10 10:01:05;;;;;;;;;;;20.40;99.90;;;;;;5072129;28;19921;-69
2022/06/10 10:03:39;;;;;;;;;;;20.30;99.90;;;;;;5079624;28;20254;-70
2022/06/10 10:06:14;;;;;;;;;;;20.40;99.90;;;;;;5081000;28;19921;-69
2022/06/10 10:08:43;;;;;;;;;;;20.50;99.90;;;;;;5075235;28;19966;-70
2022/06/10 10:11:14;;;;;;;;;;;20.60;99.90;;;;;;5073399;28;19948;-70
2022/06/10 10:13:49;;;;;;;;;;;20.80;99.90;;;;;;5080927;28;20212;-70
2022/06/10 10:16:21;;;;;;;;;;;21.00;99.90;;;;;;5073456;28;19987;-68
2022/06/10 10:18:55;;;;;;;;;;;21.10;99.90;;;;;;5075680;28;19960;-69
2022/06/10 10:21:24;;;;;;;;;;;21.30;99.90;;;;;;5069494;28;19970;-69
2022/06/10 10:23:52;;;;;;;;;;;21.30;99.90;;;;;;5081855;28;19971;-70
2022/06/10 10:26:21;;;;;;;;;;;21.20;99.90;;;;;;5083848;28;19966;-70
2022/06/10 10:28:49;;;;;;;;;;;21.10;99.90;;;;;;5082180;28;19920;-69
2022/06/10 10:31:18;;;;;;;;;;;21.00;99.90;;;;;;5077459;28;19926;-70
2022/06/10 10:33:45;;;;;;;;;;;21.10;99.90;;;;;;5081817;28;20093;-69
2022/06/10 10:36:18;;;;;;;;;;;21.20;99.90;;;;;;5075042;28;19921;-69
2022/06/10 10:38:45;;;;;;;;;;;21.40;99.90;;;;;;5080734;28;19928;-69
2022/06/10 10:41:15;;;;;;;;;;;21.50;99.90;;;;;;5074496;28;19977;-70
2022/06/10 10:43:43;;;;;;;;;;;21.70;99.90;;;;;;5079142;28;19920;-70
2022/06/10 10:46:25;;;;;;;;;;;21.90;99.90;;;;;;5075183;28;19975;-68
2022/06/10 10:48:52;;;;;;;;;;;22.10;99.90;;;;;;5072955;28;19952;-68
2022/06/10 10:51:21;;;;;;;;;;;22.30;99.90;;;;;;5071315;28;19969;-69
2022/06/10 10:53:50;;;;;;;;;;;22.40;99.90;;;;;;5075828;28;19928;-68
2022/06/10 10:56:17;;;;;;;;;;;22.50;99.90;;;;;;5080691;28;19929;-72
2022/06/10 10:58:48;;;;;;;;;;;22.50;99.90;;;;;;5073360;28;19942;-71
2022/06/10 11:01:43;;;;;;;;;;;22.40;99.90;;;;;;5078370;28;19920;-72
2022/06/10 11:04:02;;;;;;;;;;;22.40;99.90;;;;;;5066008;28;20086;-69
2022/06/10 11:06:32;;;;;;;;;;;22.60;99.90;;;;;;5080184;28;19935;-69
2022/06/10 11:09:00;;;;;;;;;;;22.70;99.90;;;;;;5081985;28;20273;-69
2022/06/10 11:11:29;;;;;;;;;;;22.90;99.90;;;;;;5079384;28;20250;-70
2022/06/10 11:13:57;;;;;;;;;;;22.90;99.90;;;;;;5073105;28;19948;-71
2022/06/10 11:16:36;;;;;;;;;;;22.90;99.90;;;;;;5071434;28;19920;-70
2022/06/10 11:19:21;;;;;;;;;;;23.00;99.90;;;;;;5084112;28;19920;-69
2022/06/10 11:21:51;;;;;;;;;;;23.30;99.90;;;;;;5077340;28;19927;-70
2022/06/10 11:24:18;;;;;;;;;;;23.60;99.90;;;;;;5083679;28;20092;-70
2022/06/10 11:26:49;;;;;;;;;;;23.70;99.90;;;;;;5083502;28;20136;-69
2022/06/10 11:29:16;;;;;;;;;;;23.60;99.90;;;;;;5082622;28;19966;-70
2022/06/10 11:31:46;;;;;;;;;;;23.40;99.90;;;;;;5083591;28;19928;-68
2022/06/10 11:34:16;;;;;;;;;;;23.10;99.90;;;;;;5083201;28;19956;-69
2022/06/10 11:36:46;;;;;;;;;;;22.80;99.90;;;;;;5075992;28;19970;-70
2022/06/10 11:39:17;;;;;;;;;;;22.60;99.90;;;;;;5063123;28;19921;-69
2022/06/10 11:41:57;;;;;;;;;;;22.40;99.90;;;;;;5073579;28;20204;-69
2022/06/10 11:44:26;;;;;;;;;;;22.30;99.90;;;;;;5064801;28;20222;-70
2022/06/10 11:47:04;;;;;;;;;;;22.20;99.90;;;;;;5079203;28;20208;-69
2022/06/10 11:49:33;;;;;;;;;;;22.10;99.90;;;;;;5063248;28;19944;-69
2022/06/10 11:52:02;;;;;;;;;;;22.20;99.90;;;;;;5063594;28;19936;-68
2022/06/10 11:54:34;;;;;;;;;;;22.10;99.90;;;;;;5063241;28;20204;-69
2022/06/10 11:59:51;;;;;;;;;;;22.40;99.90;;;;;;5062415;28;19928;-69
2022/06/10 12:02:21;;;;;;;;;;;22.40;99.90;;;;;;5080908;28;19943;-70
2022/06/10 12:04:53;;;;;;;;;;;22.40;99.90;;;;;;5083017;28;19984;-69
2022/06/10 12:07:22;;;;;;;;;;;22.40;99.90;;;;;;5083221;28;19920;-70
2022/06/10 12:09:51;;;;;;;;;;;22.30;99.90;;;;;;5071093;28;19921;-69
2022/06/10 12:12:20;;;;;;;;;;;22.10;99.90;;;;;;5063465;28;19959;-69
2022/06/10 12:14:48;;;;;;;;;;;22.20;99.90;;;;;;5062280;28;19951;-68
2022/06/10 12:17:19;;;;;;;;;;;22.50;99.90;;;;;;5061554;28;19921;-70
2022/06/10 12:19:47;;;;;;;;;;;22.70;99.90;;;;;;5072711;28;19999;-67
2022/06/10 12:22:14;;;;;;;;;;;22.80;99.90;;;;;;5082946;28;19920;-70
2022/06/10 12:24:43;;;;;;;;;;;22.80;99.90;;;;;;5081862;28;19963;-67
2022/06/10 12:27:14;;;;;;;;;;;22.70;99.90;;;;;;5081424;28;19921;-70
2022/06/10 12:29:42;;;;;;;;;;;22.60;99.90;;;;;;5082851;28;19952;-70
2022/06/10 12:32:15;;;;;;;;;;;22.60;99.90;;;;;;5080339;28;19948;-71
2022/06/10 12:34:53;;;;;;;;;;;22.50;99.90;;;;;;5083181;28;19926;-71
2022/06/10 12:37:23;;;;;;;;;;;22.40;99.90;;;;;;5082063;28;19920;-68
2022/06/10 12:39:53;;;;;;;;;;;22.30;99.90;;;;;;5081281;28;19921;-70
2022/06/10 12:42:23;;;;;;;;;;;22.30;99.90;;;;;;5072056;28;19920;-70
2022/06/10 12:44:51;;;;;;;;;;;22.30;99.90;;;;;;5080873;28;19928;-71
2022/06/10 12:47:22;;;;;;;;;;;22.30;99.90;;;;;;5081249;28;19948;-69
2022/06/10 12:49:55;;;;;;;;;;;22.30;99.90;;;;;;5068437;28;19935;-72
2022/06/10 12:52:28;;;;;;;;;;;22.30;99.90;;;;;;5062540;28;19928;-72
2022/06/10 12:54:59;;;;;;;;;;;22.30;99.90;;;;;;5062506;28;19977;-72
2022/06/10 12:57:36;;;;;;;;;;;22.50;99.90;;;;;;5080392;28;19920;-72
2022/06/10 13:00:23;;;;;;;;;;;23.00;99.90;;;;;;5084475;28;19927;-72
2022/06/10 13:02:51;;;;;;;;;;;23.40;99.90;;;;;;5086034;28;19948;-72
2022/06/10 13:05:19;;;;;;;;;;;23.80;99.90;;;;;;5085815;28;19928;-69
2022/06/10 13:07:47;;;;;;;;;;;24.30;99.90;;;;;;5099125;23;19924;-67
2022/06/10 13:10:33;;;;;;;;;;;24.80;99.90;;;;;;5049588;28;19929;-67
2022/06/10 13:13:09;;;;;;;;;;;25.40;99.90;;;;;;5057837;28;19921;-67
2022/06/10 13:15:36;;;;;;;;;;;25.90;99.90;;;;;;5065355;28;19959;-67
2022/06/10 13:18:06;;;;;;;;;;;26.10;99.90;;;;;;5063917;28;19921;-67
2022/06/10 13:20:38;;;;;;;;;;;26.20;99.90;;;;;;5057800;28;19928;-65
2022/06/10 13:23:13;;;;;;;;;;;26.10;99.90;;;;;;5054974;28;20131;-66
2022/06/10 13:25:40;;;;;;;;;;;25.90;99.90;;;;;;5064896;28;19933;-67
2022/06/10 13:28:18;;;;;;;;;;;25.80;99.90;;;;;;5065455;28;20254;-68
2022/06/10 13:30:47;;;;;;;;;;;25.90;99.90;;;;;;5063095;28;19951;-66
2022/06/10 13:33:18;;;;;;;;;;;26.20;99.90;;;;;;5064778;28;19921;-66
2022/06/10 13:35:55;;;;;;;;;;;26.20;99.90;;;;;;5064845;28;19948;-68
2022/06/10 13:38:27;;;;;;;;;;;25.90;99.90;;;;;;5065808;28;19925;-68
2022/06/10 13:41:48;;;;;;;;;;;25.70;99.90;;;;;;5068337;28;20193;-67
2022/06/10 13:43:46;;;;;;;;;;;25.60;99.90;;;;;;5045311;28;20204;-67
2022/06/10 13:46:15;;;;;;;;;;;25.40;99.90;;;;;;5055710;28;19978;-68
2022/06/10 13:48:42;;;;;;;;;;;25.30;99.90;;;;;;5064713;28;19928;-68
2022/06/10 13:51:25;;;;;;;;;;;25.20;99.90;;;;;;5064813;28;19932;-69
2022/06/10 13:53:57;;;;;;;;;;;25.40;99.90;;;;;;5065604;28;19967;-68
2022/06/10 13:56:25;;;;;;;;;;;25.60;99.90;;;;;;5064214;28;19963;-68
2022/06/10 13:58:54;;;;;;;;;;;25.60;99.90;;;;;;5064938;28;19921;-66
2022/06/10 14:01:22;;;;;;;;;;;25.80;99.40;;;;;;5064689;28;19921;-68
2022/06/10 14:03:50;;;;;;;;;;;25.70;98.70;;;;;;5064222;28;19980;-68
2022/06/10 14:06:19;;;;;;;;;;;25.60;99.90;;;;;;5064042;28;19921;-68
2022/06/10 14:08:47;;;;;;;;;;;25.90;99.90;;;;;;5063340;28;20169;-68
2022/06/10 14:11:15;;;;;;;;;;;26.20;99.50;;;;;;5064817;28;19945;-68
2022/06/10 14:13:49;;;;;;;;;;;26.10;98.50;;;;;;5064483;28;19959;-68
2022/06/10 14:16:17;;;;;;;;;;;26.20;99.30;;;;;;5058565;28;19956;-68
2022/06/10 14:18:45;;;;;;;;;;;26.30;99.00;;;;;;5068265;28;20207;-68
2022/06/10 14:21:12;;;;;;;;;;;26.50;99.90;;;;;;5064471;28;19927;-68
2022/06/10 14:23:59;;;;;;;;;;;26.30;96.50;;;;;;5064819;28;19995;-68
2022/06/10 14:26:26;;;;;;;;;;;26.20;97.80;;;;;;5063730;28;19944;-68
2022/06/10 14:28:54;;;;;;;;;;;25.90;97.70;;;;;;5064414;28;19987;-68
2022/06/10 14:31:26;;;;;;;;;;;25.80;98.50;;;;;;5064422;28;19944;-70
2022/06/10 14:33:55;;;;;;;;;;;25.70;97.90;;;;;;5064298;28;19952;-68
2022/06/10 14:36:23;;;;;;;;;;;25.60;99.40;;;;;;5063579;28;19976;-68
2022/06/10 14:39:05;;;;;;;;;;;25.50;99.90;;;;;;5059996;28;19956;-70
2022/06/10 14:41:33;;;;;;;;;;;25.50;99.20;;;;;;5064402;28;19924;-69
2022/06/10 14:44:02;;;;;;;;;;;25.80;99.90;;;;;;5059060;28;19990;-69
2022/06/10 14:46:31;;;;;;;;;;;25.90;98.80;;;;;;5063502;28;20222;-69